createdAt,value
2018-06-23T00:00:18.991Z,92.07
2018-06-23T00:02:46.196Z,93.30
2018-06-23T00:05:13.594Z,91.57
2018-06-23T00:07:40.799Z,93.90
2018-06-23T00:10:08.005Z,92.50
2018-06-23T00:12:35.217Z,91.07
2018-06-23T00:15:02.452Z,91.07
2018-06-23T00:17:29.654Z,90.47
2018-06-23T00:19:56.861Z,91.00
2018-06-23T00:22:24.078Z,89.33
2018-06-23T00:24:51.261Z,90.47
2018-06-23T00:27:18.443Z,89.27
2018-06-23T00:29:45.638Z,90.97
2018-06-23T00:32:12.848Z,89.57
2018-06-23T00:34:40.031Z,92.00
2018-06-23T00:37:07.235Z,90.83
2018-06-23T00:39:34.418Z,90.17
2018-06-23T00:42:01.609Z,89.10
2018-06-23T00:44:28.792Z,90.50
2018-06-23T00:46:56.006Z,88.87
2018-06-23T00:49:23.185Z,90.60
2018-06-23T00:51:50.398Z,88.10
2018-06-23T00:54:17.598Z,88.60
2018-06-23T00:56:44.814Z,88.33
2018-06-23T00:59:23.621Z,89.07
2018-06-23T01:01:50.840Z,91.77
2018-06-23T01:04:18.046Z,89.50
2018-06-23T01:06:45.257Z,91.10
2018-06-23T01:09:12.445Z,89.80
2018-06-23T01:11:39.642Z,90.23
2018-06-23T01:14:06.822Z,89.50
2018-06-23T01:16:34.045Z,89.10
2018-06-23T01:19:01.218Z,90.47
2018-06-23T01:21:28.410Z,90.27
2018-06-23T01:23:55.652Z,90.07
2018-06-23T01:26:22.837Z,90.57
2018-06-23T01:28:50.029Z,88.50
2018-06-23T01:31:17.225Z,89.47
2018-06-23T01:33:44.583Z,87.40
2018-06-23T01:36:11.773Z,89.47
2018-06-23T01:38:38.977Z,88.10
2018-06-23T01:41:06.177Z,89.37
2018-06-23T01:43:33.392Z,96.17
2018-06-23T01:46:00.593Z,101.80
2018-06-23T01:48:27.799Z,96.00
2018-06-23T01:50:54.980Z,91.60
2018-06-23T01:53:22.194Z,88.27
2018-06-23T01:55:49.431Z,90.77
2018-06-23T01:58:16.629Z,87.20
2018-06-23T02:00:43.824Z,89.87
2018-06-23T02:03:11.012Z,89.50
2018-06-23T02:05:38.202Z,89.17
2018-06-23T02:08:05.778Z,90.67
2018-06-23T02:10:32.972Z,90.43
2018-06-23T02:13:00.170Z,91.17
2018-06-23T02:16:37.160Z,87.23
2018-06-23T02:19:10.090Z,87.87
2018-06-23T02:22:46.879Z,89.00
2018-06-23T02:25:19.736Z,87.80
2018-06-23T02:27:52.658Z,89.00
2018-06-23T02:30:25.699Z,88.30
2018-06-23T02:32:53.430Z,88.67
2018-06-23T02:35:20.893Z,90.17
2018-06-23T02:37:48.099Z,87.97
2018-06-23T02:40:15.317Z,88.20
2018-06-23T02:42:42.525Z,92.30
2018-06-23T02:45:09.736Z,88.33
2018-06-23T02:47:36.937Z,89.40
2018-06-23T02:50:04.282Z,87.70
2018-06-23T02:52:31.734Z,90.40
2018-06-23T02:54:59.110Z,87.20
2018-06-23T02:57:26.333Z,89.63
2018-06-23T02:59:53.549Z,87.47
2018-06-23T03:02:20.765Z,87.17
2018-06-23T03:04:47.972Z,88.37
2018-06-23T03:07:15.529Z,88.43
2018-06-23T03:09:42.762Z,87.80
2018-06-23T03:12:10.017Z,88.70
2018-06-23T03:14:37.217Z,89.87
2018-06-23T03:17:09.282Z,86.93
2018-06-23T03:19:36.642Z,87.10
2018-06-23T03:22:03.867Z,87.97
2018-06-23T03:24:31.070Z,89.77
2018-06-23T03:26:58.296Z,89.07
2018-06-23T03:29:25.476Z,88.10
2018-06-23T03:31:52.709Z,87.80
2018-06-23T03:34:19.894Z,87.20
2018-06-23T03:36:47.075Z,87.90
2018-06-23T03:39:14.269Z,88.90
2018-06-23T03:41:41.465Z,87.30
2018-06-23T03:44:08.704Z,88.63
2018-06-23T03:46:35.877Z,86.87
2018-06-23T03:49:03.061Z,89.17
2018-06-23T03:51:30.263Z,87.10
2018-06-23T03:53:57.486Z,90.27
2018-06-23T03:56:25.023Z,87.70
2018-06-23T03:58:52.380Z,88.70
2018-06-23T04:01:19.582Z,86.90
2018-06-23T04:03:46.768Z,87.60
2018-06-23T04:06:13.980Z,87.80
2018-06-23T04:08:41.165Z,87.93
2018-06-23T04:11:08.384Z,91.17
2018-06-23T04:13:35.576Z,90.27
2018-06-23T04:16:02.809Z,89.50
2018-06-23T04:18:30.002Z,89.20
2018-06-23T04:20:57.193Z,89.80
2018-06-23T04:23:24.365Z,89.80
2018-06-23T04:25:51.562Z,91.50
2018-06-23T04:28:18.748Z,88.70
2018-06-23T04:30:45.947Z,91.23
2018-06-23T04:33:13.184Z,89.70
2018-06-23T04:35:40.385Z,89.87
2018-06-23T04:38:07.589Z,89.70
2018-06-23T04:40:34.793Z,91.10
2018-06-23T04:43:01.969Z,90.10
2018-06-23T04:45:29.157Z,90.03
2018-06-23T04:47:56.349Z,90.27
2018-06-23T04:50:23.532Z,90.40
2018-06-23T04:52:50.731Z,89.47
2018-06-23T04:55:17.908Z,95.30
2018-06-23T04:57:45.117Z,93.50
2018-06-23T05:00:12.334Z,92.90
2018-06-23T05:02:39.521Z,95.77
2018-06-23T05:05:06.737Z,91.10
2018-06-23T05:07:33.957Z,93.87
2018-06-23T05:10:01.145Z,96.73
2018-06-23T05:12:28.380Z,94.70
2018-06-23T05:14:55.554Z,97.67
2018-06-23T05:17:22.754Z,96.43
2018-06-23T05:19:50.010Z,99.90
2018-06-23T05:22:17.217Z,97.83
2018-06-23T05:24:44.414Z,98.67
2018-06-23T05:27:11.626Z,100.77
2018-06-23T05:29:38.817Z,100.27
2018-06-23T05:32:06.025Z,97.90
2018-06-23T05:34:33.265Z,103.57
2018-06-23T05:37:00.477Z,104.40
2018-06-23T05:39:27.655Z,103.20
2018-06-23T05:41:54.860Z,102.20
2018-06-23T05:44:22.060Z,103.83
2018-06-23T05:46:49.257Z,102.97
2018-06-23T05:49:16.433Z,105.77
2018-06-23T05:51:43.666Z,102.57
2018-06-23T05:54:10.888Z,106.57
2018-06-23T05:56:38.090Z,102.37
2018-06-23T05:59:05.353Z,104.10
2018-06-23T06:01:32.590Z,102.93
2018-06-23T06:03:59.796Z,103.70
2018-06-23T06:06:27.011Z,103.13
2018-06-23T06:08:54.209Z,104.47
2018-06-23T06:11:21.584Z,102.97
2018-06-23T06:13:48.775Z,101.57
2018-06-23T06:16:15.968Z,105.33
2018-06-23T06:18:43.178Z,103.13
2018-06-23T06:21:10.381Z,103.80
2018-06-23T06:23:37.585Z,103.27
2018-06-23T06:26:04.826Z,106.03
2018-06-23T06:28:32.058Z,101.50
2018-06-23T06:30:59.312Z,102.97
2018-06-23T06:33:26.489Z,104.27
2018-06-23T06:35:53.691Z,109.87
2018-06-23T06:38:20.892Z,107.17
2018-06-23T06:40:48.090Z,110.40
2018-06-23T06:43:15.303Z,110.83
2018-06-23T06:45:42.566Z,109.57
2018-06-23T06:48:09.790Z,110.37
2018-06-23T06:50:36.997Z,115.97
2018-06-23T06:53:04.229Z,124.20
2018-06-23T06:55:31.450Z,130.67
2018-06-23T06:57:58.642Z,161.10
2018-06-23T07:00:25.829Z,188.30
2018-06-23T07:02:53.088Z,218.70
2018-06-23T07:05:20.277Z,227.93
2018-06-23T07:07:47.477Z,240.93
2018-06-23T07:10:14.738Z,278.90
2018-06-23T07:12:41.929Z,324.50
2018-06-23T07:15:12.051Z,380.43
2018-06-23T07:17:39.329Z,461.07
2018-06-23T07:20:06.511Z,486.07
2018-06-23T07:22:33.694Z,525.70
2018-06-23T07:25:00.902Z,520.63
2018-06-23T07:27:28.110Z,497.90
2018-06-23T07:29:55.326Z,476.50
2018-06-23T07:32:22.524Z,418.00
2018-06-23T07:34:49.857Z,386.20
2018-06-23T07:37:16.961Z,349.30
2018-06-23T07:39:44.186Z,346.10
2018-06-23T07:42:11.372Z,319.63
2018-06-23T07:44:38.560Z,285.53
2018-06-23T07:47:05.756Z,273.27
2018-06-23T07:49:32.957Z,266.07
2018-06-23T07:52:00.149Z,271.83
2018-06-23T07:54:27.354Z,281.07
2018-06-23T07:56:54.552Z,281.03
2018-06-23T07:59:21.737Z,298.40
2018-06-23T08:01:48.931Z,329.63
2018-06-23T08:04:16.117Z,318.03
2018-06-23T08:06:43.307Z,378.63
2018-06-23T08:09:10.493Z,405.67
2018-06-23T08:11:37.818Z,422.50
2018-06-23T08:14:05.042Z,417.20
2018-06-23T08:16:32.253Z,450.40
2018-06-23T08:18:59.556Z,404.40
2018-06-23T08:21:26.753Z,384.50
2018-06-23T08:23:53.940Z,353.20
2018-06-23T08:26:21.729Z,338.37
2018-06-23T08:28:48.865Z,329.13
2018-06-23T08:31:16.115Z,313.17
2018-06-23T08:33:43.478Z,316.00
2018-06-23T08:36:10.669Z,346.00
2018-06-23T08:38:37.852Z,408.00
2018-06-23T08:41:05.066Z,390.73
2018-06-23T08:43:32.291Z,341.13
2018-06-23T08:45:59.489Z,331.83
2018-06-23T08:48:26.682Z,338.53
2018-06-23T08:50:53.891Z,337.77
2018-06-23T08:53:21.077Z,329.90
2018-06-23T08:55:48.290Z,289.37
2018-06-23T08:58:15.497Z,291.97
2018-06-23T09:00:42.680Z,290.20
2018-06-23T09:03:09.873Z,316.20
2018-06-23T09:05:37.061Z,351.67
2018-06-23T09:08:04.305Z,381.67
2018-06-23T09:10:31.505Z,354.27
2018-06-23T09:12:58.737Z,308.50
2018-06-23T09:15:25.940Z,306.67
2018-06-23T09:17:53.153Z,322.43
2018-06-23T09:20:20.336Z,374.73
2018-06-23T09:22:47.541Z,354.37
2018-06-23T09:25:14.791Z,323.67
2018-06-23T09:27:41.950Z,328.23
2018-06-23T09:30:09.160Z,364.83
2018-06-23T09:32:36.350Z,368.73
2018-06-23T09:35:03.580Z,350.27
2018-06-23T09:37:30.794Z,335.87
2018-06-23T09:39:57.988Z,318.33
2018-06-23T09:42:25.181Z,286.67
2018-06-23T09:44:52.361Z,279.07
2018-06-23T09:47:19.896Z,303.90
2018-06-23T09:49:47.091Z,298.00
2018-06-23T09:52:14.349Z,293.80
2018-06-23T09:54:41.539Z,258.00
2018-06-23T09:57:08.741Z,261.50
2018-06-23T09:59:36.529Z,231.40
2018-06-23T10:02:03.763Z,249.53
2018-06-23T10:04:30.985Z,204.70
2018-06-23T10:06:58.184Z,233.03
2018-06-23T10:09:25.365Z,212.17
2018-06-23T10:11:52.573Z,204.93
2018-06-23T10:14:19.782Z,243.93
2018-06-23T10:16:46.977Z,258.63
2018-06-23T10:19:14.167Z,288.77
2018-06-23T10:21:41.385Z,303.93
2018-06-23T10:24:08.576Z,290.87
2018-06-23T10:26:35.769Z,267.50
2018-06-23T10:29:02.972Z,260.23
2018-06-23T10:31:30.156Z,244.43
2018-06-23T10:33:57.365Z,249.50
2018-06-23T10:36:24.542Z,237.87
2018-06-23T10:38:51.730Z,268.73
2018-06-23T10:41:18.917Z,268.30
2018-06-23T10:43:46.141Z,277.13
2018-06-23T10:46:13.358Z,288.37
2018-06-23T10:48:40.561Z,314.63
2018-06-23T10:51:07.761Z,327.50
2018-06-23T10:53:34.949Z,341.67
2018-06-23T10:56:02.145Z,328.57
2018-06-23T10:58:29.315Z,328.73
2018-06-23T11:00:56.516Z,355.20
2018-06-23T11:03:23.717Z,370.27
2018-06-23T11:05:50.929Z,363.83
2018-06-23T11:08:18.101Z,400.23
2018-06-23T11:10:45.331Z,424.73
2018-06-23T11:13:12.636Z,455.07
2018-06-23T11:15:40.085Z,416.33
2018-06-23T11:18:07.288Z,405.63
2018-06-23T11:20:34.501Z,404.57
2018-06-23T11:23:01.684Z,413.13
2018-06-23T11:25:28.878Z,391.47
2018-06-23T11:27:56.049Z,416.47
2018-06-23T11:30:23.245Z,438.07
2018-06-23T11:32:50.428Z,499.93
2018-06-23T11:35:17.616Z,464.77
2018-06-23T11:37:44.802Z,468.33
2018-06-23T11:40:12.068Z,523.73
2018-06-23T11:42:39.265Z,521.53
2018-06-23T11:45:06.507Z,549.93
2018-06-23T11:47:33.693Z,560.73
2018-06-23T11:50:01.172Z,566.60
2018-06-23T11:52:28.507Z,585.43
2018-06-23T11:54:55.581Z,589.87
2018-06-23T11:57:22.780Z,622.20
2018-06-23T11:59:49.966Z,628.20
2018-06-23T12:02:17.161Z,656.27
2018-06-23T12:04:44.348Z,613.20
2018-06-23T12:07:11.523Z,623.00
2018-06-23T12:09:38.723Z,612.77
2018-06-23T12:12:05.965Z,613.23
2018-06-23T12:14:33.162Z,643.33
2018-06-23T12:17:00.376Z,624.00
2018-06-23T12:19:27.565Z,645.07
2018-06-23T12:21:54.720Z,655.80
2018-06-23T12:24:21.921Z,693.77
2018-06-23T12:26:49.137Z,714.43
2018-06-23T12:29:16.321Z,674.57
2018-06-23T12:31:43.509Z,690.90
2018-06-23T12:34:10.689Z,714.87
2018-06-23T12:36:37.913Z,683.13
2018-06-23T12:39:07.474Z,666.93
2018-06-23T12:41:34.720Z,653.90
2018-06-23T12:44:02.072Z,670.40
2018-06-23T12:46:29.272Z,655.87
2018-06-23T12:48:56.463Z,652.77
2018-06-23T12:51:23.657Z,672.53
2018-06-23T12:53:50.854Z,668.97
2018-06-23T12:56:18.062Z,669.33
2018-06-23T12:58:45.265Z,691.33
2018-06-23T13:01:12.458Z,727.17
2018-06-23T13:03:39.641Z,742.90
2018-06-23T13:06:06.846Z,707.03
2018-06-23T13:08:34.038Z,675.50
2018-06-23T13:11:01.238Z,678.97
2018-06-23T13:13:28.429Z,631.53
2018-06-23T13:15:55.658Z,618.20
2018-06-23T13:18:22.864Z,559.07
2018-06-23T13:20:50.042Z,567.53
2018-06-23T13:23:17.237Z,617.10
2018-06-23T13:25:44.421Z,618.10
2018-06-23T13:28:11.628Z,597.27
2018-06-23T13:30:38.820Z,587.73
2018-06-23T13:33:06.039Z,545.50
2018-06-23T13:35:33.340Z,527.63
2018-06-23T13:38:00.539Z,508.10
2018-06-23T13:40:27.800Z,491.37
2018-06-23T13:42:55.018Z,587.43
2018-06-23T13:45:22.204Z,569.77
2018-06-23T13:47:49.410Z,617.67
2018-06-23T13:50:16.602Z,618.63
2018-06-23T13:52:43.790Z,611.43
2018-06-23T13:55:10.998Z,632.00
2018-06-23T13:57:38.193Z,659.10
2018-06-23T14:00:06.580Z,634.83
2018-06-23T14:02:33.785Z,647.83
2018-06-23T14:05:00.982Z,650.13
2018-06-23T14:07:28.156Z,639.57
2018-06-23T14:09:55.346Z,661.53
2018-06-23T14:12:22.562Z,601.83
2018-06-23T14:14:49.780Z,603.87
2018-06-23T14:17:16.952Z,580.10
2018-06-23T14:19:44.138Z,627.97
2018-06-23T14:22:11.323Z,619.13
2018-06-23T14:24:38.589Z,633.67
2018-06-23T14:27:05.801Z,641.30
2018-06-23T14:29:33.041Z,651.17
2018-06-23T14:32:00.496Z,663.20
2018-06-23T14:34:27.466Z,666.97
2018-06-23T14:36:54.661Z,647.23
2018-06-23T14:39:21.841Z,638.60
2018-06-23T14:41:49.025Z,641.80
2018-06-23T14:44:16.370Z,614.30
2018-06-23T14:46:43.580Z,616.57
2018-06-23T14:49:10.757Z,635.80
2018-06-23T14:51:37.970Z,608.07
2018-06-23T14:54:05.323Z,582.50
2018-06-23T14:56:32.505Z,563.43
2018-06-23T14:58:59.705Z,577.10
2018-06-23T15:01:26.881Z,600.20
2018-06-23T15:03:54.053Z,586.83
2018-06-23T15:06:21.229Z,578.03
2018-06-23T15:08:59.938Z,540.43
2018-06-23T15:11:38.624Z,563.47
2018-06-23T15:14:05.815Z,587.23
2018-06-23T15:16:33.052Z,521.10
2018-06-23T15:19:00.237Z,530.67
2018-06-23T15:21:27.440Z,563.03
2018-06-23T15:23:54.631Z,555.80
2018-06-23T15:26:21.820Z,538.80
2018-06-23T15:28:49.005Z,562.20
2018-06-23T15:31:16.195Z,541.33
2018-06-23T15:33:43.425Z,564.60
2018-06-23T15:36:10.836Z,574.47
2018-06-23T15:38:38.001Z,578.00
2018-06-23T15:41:05.707Z,594.00
2018-06-23T15:43:33.045Z,563.73
2018-06-23T15:46:00.279Z,588.00
2018-06-23T15:48:27.459Z,578.43
2018-06-23T15:50:54.657Z,589.93
2018-06-23T15:53:21.832Z,548.80
2018-06-23T15:55:49.104Z,562.50
2018-06-23T15:58:16.310Z,557.67
2018-06-23T16:00:43.520Z,531.53
2018-06-23T16:03:10.712Z,477.07
2018-06-23T16:05:37.898Z,470.17
2018-06-23T16:08:05.118Z,473.90
2018-06-23T16:10:32.318Z,471.67
2018-06-23T16:12:59.499Z,474.70
2018-06-23T16:15:26.743Z,444.23
2018-06-23T16:17:53.900Z,471.10
2018-06-23T16:20:21.074Z,463.53
2018-06-23T16:22:48.285Z,434.93
2018-06-23T16:25:15.936Z,413.63
2018-06-23T16:27:43.177Z,383.33
2018-06-23T16:30:10.364Z,399.63
2018-06-23T16:32:37.614Z,382.00
2018-06-23T16:35:05.126Z,368.77
2018-06-23T16:37:32.200Z,353.97
2018-06-23T16:39:59.399Z,357.30
2018-06-23T16:42:26.585Z,335.23
2018-06-23T16:44:53.782Z,329.77
2018-06-23T16:47:20.969Z,331.27
2018-06-23T16:49:48.147Z,306.87
2018-06-23T16:52:15.334Z,301.40
2018-06-23T16:54:42.513Z,290.53
2018-06-23T16:57:09.714Z,282.37
2018-06-23T16:59:36.897Z,267.80
2018-06-23T17:02:04.110Z,303.83
2018-06-23T17:04:31.306Z,294.57
2018-06-23T17:06:58.506Z,260.57
2018-06-23T17:09:25.856Z,254.63
2018-06-23T17:11:53.084Z,246.13
2018-06-23T17:14:20.265Z,228.63
2018-06-23T17:16:47.501Z,250.67
2018-06-23T17:19:14.686Z,223.83
2018-06-23T17:21:42.797Z,235.93
2018-06-23T17:24:09.981Z,224.57
2018-06-23T17:26:37.163Z,241.73
2018-06-23T17:29:04.485Z,213.97
2018-06-23T17:31:31.670Z,217.23
2018-06-23T17:33:58.850Z,208.37
2018-06-23T17:36:26.050Z,198.23
2018-06-23T17:38:53.226Z,201.93
2018-06-23T17:41:20.420Z,196.17
2018-06-23T17:43:47.620Z,201.50
2018-06-23T17:46:14.826Z,202.70
2018-06-23T17:48:42.005Z,194.87
2018-06-23T17:51:09.183Z,197.53
2018-06-23T17:53:36.364Z,232.90
2018-06-23T17:56:03.825Z,214.77
2018-06-23T17:58:31.024Z,204.33
2018-06-23T18:00:58.258Z,195.80
2018-06-23T18:03:25.444Z,211.53
2018-06-23T18:05:52.629Z,200.67
2018-06-23T18:08:19.849Z,202.40
2018-06-23T18:10:47.086Z,213.70
2018-06-23T18:13:14.273Z,209.00
2018-06-23T18:15:41.480Z,215.20
2018-06-23T18:18:08.628Z,205.20
2018-06-23T18:20:35.819Z,219.23
2018-06-23T18:23:03.030Z,187.77
2018-06-23T18:25:30.231Z,202.50
2018-06-23T18:27:57.434Z,183.70
2018-06-23T18:30:24.629Z,181.73
2018-06-23T18:32:51.822Z,180.03
2018-06-23T18:35:19.003Z,186.17
2018-06-23T18:37:46.216Z,171.97
2018-06-23T18:40:13.396Z,168.73
2018-06-23T18:42:40.586Z,166.57
2018-06-23T18:45:07.781Z,177.67
2018-06-23T18:47:35.156Z,176.77
2018-06-23T18:50:02.362Z,177.13
2018-06-23T18:52:29.673Z,168.17
2018-06-23T18:54:56.925Z,156.83
2018-06-23T18:57:24.108Z,162.23
2018-06-23T18:59:51.293Z,157.20
2018-06-23T19:02:18.512Z,167.43
2018-06-23T19:04:45.718Z,155.50
2018-06-23T19:07:12.897Z,165.43
2018-06-23T19:09:40.085Z,152.10
2018-06-23T19:12:07.273Z,152.80
2018-06-23T19:14:34.456Z,152.43
2018-06-23T19:17:01.667Z,156.97
2018-06-23T19:19:28.880Z,152.60
2018-06-23T19:21:56.065Z,145.60
2018-06-23T19:24:23.269Z,154.93
2018-06-23T19:26:50.445Z,149.00
2018-06-23T19:29:17.632Z,152.00
2018-06-23T19:31:44.828Z,146.20
2018-06-23T19:34:12.017Z,147.10
2018-06-23T19:36:39.243Z,143.50
2018-06-23T19:39:08.337Z,148.53
2018-06-23T19:41:35.534Z,153.80
2018-06-23T19:44:02.827Z,148.50
2018-06-23T19:46:30.021Z,148.93
2018-06-23T19:48:57.205Z,140.40
2018-06-23T19:51:24.389Z,142.53
2018-06-23T19:53:51.641Z,136.97
2018-06-23T19:56:18.771Z,142.70
2018-06-23T19:58:45.976Z,135.90
2018-06-23T20:01:13.149Z,142.30
2018-06-23T20:03:40.332Z,140.33
2018-06-23T20:06:07.728Z,132.50
2018-06-23T20:08:34.930Z,136.13
2018-06-23T20:11:02.138Z,134.00
2018-06-23T20:13:29.328Z,138.43
2018-06-23T20:15:56.796Z,133.33
2018-06-23T20:18:23.998Z,136.60
2018-06-23T20:20:51.215Z,137.63
2018-06-23T20:23:18.425Z,123.50
2018-06-23T20:25:46.457Z,125.27
2018-06-23T20:28:13.793Z,128.07
2018-06-23T20:30:41.046Z,129.73
2018-06-23T20:33:08.348Z,132.77
2018-06-23T20:35:35.534Z,136.13
2018-06-23T20:38:02.753Z,128.27
2018-06-23T20:40:29.946Z,130.33
2018-06-23T20:42:57.133Z,141.13
2018-06-23T20:45:24.326Z,125.63
2018-06-23T20:47:51.497Z,125.57
2018-06-23T20:50:18.685Z,129.60
2018-06-23T20:52:45.869Z,126.17
2018-06-23T20:55:13.072Z,129.03
2018-06-23T20:57:40.289Z,122.33
2018-06-23T21:00:07.517Z,103.13
2018-06-23T21:02:34.735Z,121.07
2018-06-23T21:05:01.938Z,120.83
2018-06-23T21:07:29.226Z,121.03
2018-06-23T21:09:56.349Z,129.73
2018-06-23T21:12:23.538Z,124.03
2018-06-23T21:14:50.725Z,121.00
2018-06-23T21:17:17.926Z,118.33
2018-06-23T21:19:45.193Z,119.87
2018-06-23T21:22:12.402Z,118.47
2018-06-23T21:24:39.605Z,121.47
2018-06-23T21:27:06.862Z,118.80
2018-06-23T21:29:34.045Z,119.33
2018-06-23T21:32:01.250Z,119.43
2018-06-23T21:34:28.458Z,122.37
2018-06-23T21:36:55.641Z,124.07
2018-06-23T21:39:22.853Z,116.83
2018-06-23T21:41:50.037Z,122.83
2018-06-23T21:44:17.230Z,118.07
2018-06-23T21:46:44.456Z,119.57
2018-06-23T21:49:11.624Z,122.50
2018-06-23T21:51:38.814Z,121.33
2018-06-23T21:54:06.104Z,124.97
2018-06-23T21:56:33.305Z,119.07
2018-06-23T21:59:00.484Z,123.07
2018-06-23T22:01:27.798Z,121.07
2018-06-23T22:03:55.178Z,122.87
2018-06-23T22:06:22.368Z,121.07
2018-06-23T22:08:49.554Z,126.83
2018-06-23T22:11:16.796Z,121.70
2018-06-23T22:13:43.977Z,129.63
2018-06-23T22:16:11.174Z,126.17
2018-06-23T22:18:38.380Z,122.07
2018-06-23T22:21:05.745Z,131.53
2018-06-23T22:23:32.932Z,122.37
2018-06-23T22:26:00.179Z,120.80
2018-06-23T22:28:27.388Z,120.83
2018-06-23T22:30:54.568Z,127.37
2018-06-23T22:33:21.757Z,126.10
2018-06-23T22:35:48.957Z,128.90
2018-06-23T22:38:16.181Z,121.67
2018-06-23T22:40:43.481Z,121.53
2018-06-23T22:43:10.666Z,124.23
2018-06-23T22:45:37.878Z,124.70
2018-06-23T22:48:05.093Z,120.40
2018-06-23T22:50:32.284Z,125.37
2018-06-23T22:52:59.486Z,120.13
2018-06-23T22:55:26.676Z,119.37
2018-06-23T22:57:53.915Z,119.83
2018-06-23T23:00:21.098Z,119.50
2018-06-23T23:02:48.302Z,126.30
2018-06-23T23:05:15.497Z,124.33
2018-06-23T23:07:42.712Z,121.53
2018-06-23T23:10:10.531Z,129.23
2018-06-23T23:12:37.725Z,123.00
2018-06-23T23:15:05.348Z,125.67
2018-06-23T23:17:32.719Z,120.97
2018-06-23T23:19:59.920Z,120.60
2018-06-23T23:22:27.124Z,119.03
2018-06-23T23:24:54.310Z,120.07
2018-06-23T23:27:21.777Z,119.93
2018-06-23T23:29:48.961Z,126.13
2018-06-23T23:32:16.166Z,119.67
2018-06-23T23:34:43.344Z,120.47
2018-06-23T23:37:10.521Z,118.23
2018-06-23T23:39:37.729Z,116.33
2018-06-23T23:42:04.913Z,117.13
2018-06-23T23:44:32.121Z,115.87
2018-06-23T23:46:59.313Z,117.40
2018-06-23T23:49:26.496Z,114.27
2018-06-23T23:51:53.689Z,115.13
2018-06-23T23:54:20.892Z,116.83
2018-06-23T23:56:48.105Z,112.97
2018-06-23T23:59:15.313Z,115.07
